createdAt,value
2022-10-06T01:42:59.808Z,11.00
2022-10-06T07:35:39.719Z,16.90
2022-10-06T07:45:53.267Z,18.90
2022-10-06T07:51:18.547Z,20.80
2022-10-06T08:01:29.257Z,22.10
2022-10-06T08:08:56.435Z,23.70
2022-10-06T08:16:21.739Z,23.80
2022-10-06T08:18:50.927Z,24.40
2022-10-06T08:21:23.836Z,25.00
2022-10-06T08:23:52.022Z,25.30
2022-10-06T08:26:20.866Z,25.70
2022-10-06T08:28:50.800Z,26.20
2022-10-06T08:31:21.442Z,26.50
2022-10-06T08:33:49.095Z,26.80
2022-10-06T08:36:18.510Z,27.00
2022-10-06T08:38:50.488Z,26.60
2022-10-06T08:41:28.888Z,26.20
2022-10-06T08:44:17.971Z,26.20
2022-10-06T08:47:03.727Z,26.20
2022-10-06T08:49:38.936Z,26.00
2022-10-06T08:54:43.604Z,25.80
2022-10-06T08:57:22.311Z,26.30
2022-10-06T08:59:53.367Z,26.90
2022-10-06T09:02:32.454Z,27.00
2022-10-06T09:05:04.121Z,27.20
2022-10-06T09:07:46.144Z,23.60
2022-10-06T09:10:43.336Z,27.40
2022-10-06T09:13:19.687Z,26.30
2022-10-06T09:15:56.652Z,26.10
2022-10-06T09:18:48.989Z,26.50
2022-10-06T09:21:23.331Z,26.70
2022-10-06T09:23:56.912Z,26.60
2022-10-06T09:26:30.365Z,27.70
2022-10-06T09:28:58.146Z,28.20
2022-10-06T09:33:55.409Z,29.10
2022-10-06T09:36:24.039Z,29.30
2022-10-06T09:38:53.919Z,28.40
2022-10-06T09:41:41.115Z,29.10
2022-10-06T09:44:24.846Z,29.40
2022-10-06T09:46:52.650Z,30.00
2022-10-06T09:49:26.929Z,29.60
2022-10-06T09:52:02.673Z,29.90
2022-10-06T09:54:31.042Z,29.70
2022-10-06T09:57:06.849Z,29.30
2022-10-06T09:59:42.211Z,29.60
2022-10-06T10:02:28.655Z,30.70
2022-10-06T10:04:56.942Z,32.10
2022-10-06T10:07:29.695Z,32.00
2022-10-06T10:10:22.516Z,30.80
2022-10-06T10:12:50.135Z,31.10
2022-10-06T10:15:19.889Z,30.10
2022-10-06T10:17:52.172Z,28.30
2022-10-06T10:20:40.120Z,28.00
2022-10-06T10:23:21.669Z,27.10
2022-10-06T10:26:08.112Z,27.60
2022-10-06T10:28:55.627Z,28.00
2022-10-06T10:31:36.568Z,28.50
2022-10-06T10:34:31.256Z,30.30
2022-10-06T10:37:19.665Z,31.20
2022-10-06T10:39:54.476Z,32.80
2022-10-06T10:42:29.447Z,31.70
2022-10-06T10:45:05.632Z,32.90
2022-10-06T10:47:37.825Z,33.40
2022-10-06T10:50:20.894Z,33.00
2022-10-06T10:52:50.580Z,32.90
2022-10-06T10:55:26.682Z,33.20
2022-10-06T10:57:59.327Z,34.10
2022-10-06T11:00:29.073Z,33.40
2022-10-06T11:02:58.321Z,34.20
2022-10-06T11:06:01.532Z,33.60
2022-10-06T11:08:49.264Z,32.50
2022-10-06T11:11:54.568Z,32.00
2022-10-06T11:14:50.896Z,32.30
2022-10-06T11:17:46.883Z,32.60
2022-10-06T11:20:36.658Z,33.80
2022-10-06T11:23:26.335Z,32.40
2022-10-06T11:26:29.674Z,31.20
2022-10-06T11:29:31.883Z,30.70
2022-10-06T11:32:18.091Z,30.70
2022-10-06T11:34:49.434Z,31.60
2022-10-06T11:39:57.928Z,32.70
2022-10-06T11:42:43.859Z,32.70
2022-10-06T11:45:16.196Z,32.90
2022-10-06T11:48:13.735Z,33.10
2022-10-06T11:50:42.661Z,32.10
2022-10-06T11:53:37.133Z,30.00
2022-10-06T11:56:19.535Z,29.10
2022-10-06T11:58:52.279Z,28.70
2022-10-06T12:01:30.940Z,28.20
2022-10-06T12:04:13.999Z,27.60
2022-10-06T12:06:46.544Z,27.10
2022-10-06T12:09:40.188Z,26.70
2022-10-06T12:12:19.120Z,26.30
2022-10-06T12:16:55.334Z,25.80
2022-10-06T12:17:59.235Z,25.30
2022-10-06T12:21:14.272Z,25.20
2022-10-06T12:23:57.312Z,25.40
2022-10-06T12:26:44.399Z,25.90
2022-10-06T12:29:23.741Z,24.80
2022-10-06T12:32:30.715Z,24.80
2022-10-06T12:35:03.374Z,26.70
2022-10-06T12:40:34.784Z,25.10
2022-10-06T12:43:19.986Z,25.20
2022-10-06T12:45:58.223Z,23.30
2022-10-06T12:48:37.289Z,25.10
2022-10-06T12:51:12.860Z,24.50
2022-10-06T12:53:57.288Z,24.00
2022-10-06T12:56:31.756Z,24.20
2022-10-06T12:58:58.805Z,23.00
2022-10-06T13:01:27.817Z,23.00
2022-10-06T13:06:24.569Z,24.00
2022-10-06T13:09:12.898Z,24.50
2022-10-06T13:11:40.099Z,23.30
2022-10-06T13:14:10.187Z,24.80
2022-10-06T13:16:40.979Z,24.10
2022-10-06T13:19:22.280Z,23.80
2022-10-06T13:24:21.174Z,23.60
2022-10-06T13:26:51.325Z,24.80
2022-10-06T13:29:25.760Z,23.10
2022-10-06T13:31:54.943Z,22.90
2022-10-06T13:34:34.706Z,22.80
2022-10-06T13:39:32.268Z,21.60
2022-10-06T13:44:50.303Z,22.20
2022-10-06T13:47:23.440Z,22.00
2022-10-06T13:49:53.424Z,20.90
2022-10-06T13:52:24.867Z,21.50
2022-10-06T13:57:40.537Z,20.70
2022-10-06T14:00:20.370Z,20.60
2022-10-06T14:02:50.719Z,20.20
2022-10-06T14:05:59.696Z,20.20
2022-10-06T14:08:27.805Z,20.00
2022-10-06T14:11:04.599Z,20.00
2022-10-06T14:13:52.728Z,19.90
2022-10-06T14:16:25.036Z,19.80
2022-10-06T14:19:03.535Z,19.60
2022-10-06T14:21:38.829Z,19.40
2022-10-06T14:24:20.316Z,19.30
2022-10-06T14:26:51.979Z,19.10
2022-10-06T14:29:21.675Z,19.20
2022-10-06T14:31:49.153Z,18.90
2022-10-06T14:34:18.127Z,20.40
2022-10-06T14:36:55.070Z,18.80
2022-10-06T14:39:21.922Z,18.50
2022-10-06T14:44:19.183Z,18.70
2022-10-06T14:46:48.151Z,18.80
2022-10-06T14:56:40.327Z,19.20
2022-10-06T14:59:09.564Z,18.60
2022-10-06T15:01:38.356Z,18.50
2022-10-06T15:04:13.641Z,20.00
2022-10-06T15:06:59.550Z,18.50
2022-10-06T15:09:29.622Z,18.40
2022-10-06T15:16:54.049Z,18.20
2022-10-06T15:19:20.773Z,16.90
2022-10-06T15:24:16.392Z,18.40
2022-10-06T15:29:31.760Z,17.60
2022-10-06T15:36:56.916Z,17.30
2022-10-06T15:39:25.925Z,18.80
2022-10-06T15:46:49.576Z,17.20
2022-10-06T15:49:21.989Z,17.10
2022-10-06T15:51:56.732Z,17.00
2022-10-06T15:54:33.516Z,17.00
2022-10-06T15:57:02.134Z,17.00
2022-10-06T15:59:33.707Z,16.90
2022-10-06T16:02:04.191Z,16.80
2022-10-06T16:07:18.255Z,16.80
2022-10-06T16:09:46.924Z,16.70
2022-10-06T16:12:17.409Z,16.50
2022-10-06T16:14:44.890Z,15.80
2022-10-06T16:22:12.961Z,16.30
2022-10-06T16:27:10.049Z,14.70
2022-10-06T16:54:12.693Z,16.60
2022-10-06T16:56:44.590Z,15.50
2022-10-06T17:04:17.939Z,15.20
2022-10-06T17:06:49.970Z,15.10
2022-10-06T17:19:21.175Z,14.80
2022-10-06T17:41:45.424Z,14.20
2022-10-06T17:51:40.691Z,13.90
2022-10-06T18:49:22.886Z,12.80
2022-10-06T18:54:32.477Z,12.80
2022-10-06T18:59:31.178Z,12.70
2022-10-06T19:54:46.631Z,10.90
2022-10-06T20:09:35.851Z,13.30
